createdAt,value
2022-08-07T00:00:25.453Z,69.70
2022-08-07T00:02:53.927Z,67.60
2022-08-07T00:05:23.600Z,67.30
2022-08-07T00:08:00.247Z,66.10
2022-08-07T00:10:31.953Z,66.20
2022-08-07T00:13:23.946Z,67.00
2022-08-07T00:15:51.507Z,67.90
2022-08-07T00:18:24.357Z,68.00
2022-08-07T00:20:53.837Z,67.90
2022-08-07T00:23:22.380Z,67.90
2022-08-07T00:26:00.156Z,70.60
2022-08-07T00:28:33.541Z,70.10
2022-08-07T00:31:05.701Z,68.90
2022-08-07T00:33:35.500Z,67.20
2022-08-07T00:36:04.589Z,66.00
2022-08-07T00:38:33.305Z,66.20
2022-08-07T00:41:03.223Z,67.40
2022-08-07T00:44:01.685Z,67.50
2022-08-07T00:46:19.989Z,69.20
2022-08-07T00:48:51.825Z,71.60
2022-08-07T00:51:20.669Z,71.80
2022-08-07T00:53:54.974Z,70.30
2022-08-07T00:56:30.370Z,67.90
2022-08-07T00:59:02.120Z,68.10
2022-08-07T01:01:41.530Z,68.60
2022-08-07T01:04:12.396Z,67.60
2022-08-07T01:06:52.880Z,68.10
2022-08-07T01:10:02.365Z,69.30
2022-08-07T01:12:29.914Z,70.10
2022-08-07T01:15:00.981Z,70.30
2022-08-07T01:17:30.400Z,68.60
2022-08-07T01:20:05.809Z,67.50
2022-08-07T01:22:36.720Z,67.60
2022-08-07T01:25:54.498Z,68.50
2022-08-07T01:27:56.170Z,68.60
2022-08-07T01:30:27.125Z,68.60
2022-08-07T01:32:55.423Z,68.40
2022-08-07T01:35:24.345Z,68.70
2022-08-07T01:37:54.251Z,70.00
2022-08-07T01:40:24.020Z,70.90
2022-08-07T01:42:57.582Z,69.60
2022-08-07T01:45:36.923Z,69.30
2022-08-07T01:48:18.891Z,68.30
2022-08-07T01:50:55.656Z,69.00
2022-08-07T01:54:11.771Z,69.70
2022-08-07T01:56:18.988Z,70.60
2022-08-07T01:58:53.462Z,71.80
2022-08-07T02:01:59.688Z,70.40
2022-08-07T02:04:28.012Z,69.20
2022-08-07T02:07:00.381Z,69.60
2022-08-07T02:09:43.604Z,70.70
2022-08-07T02:12:29.371Z,70.90
2022-08-07T02:15:01.264Z,71.90
2022-08-07T02:17:34.755Z,72.80
2022-08-07T02:20:09.995Z,74.80
2022-08-07T02:22:47.273Z,73.90
2022-08-07T02:26:10.822Z,71.90
2022-08-07T02:28:24.673Z,70.70
2022-08-07T02:30:56.001Z,69.50
2022-08-07T02:33:32.797Z,69.30
2022-08-07T02:36:28.415Z,69.40
2022-08-07T02:39:01.371Z,69.20
2022-08-07T02:41:33.521Z,70.70
2022-08-07T02:44:06.362Z,71.50
2022-08-07T02:46:36.842Z,74.20
2022-08-07T02:49:05.426Z,74.50
2022-08-07T02:51:49.758Z,73.90
2022-08-07T02:54:22.187Z,72.10
2022-08-07T02:56:55.937Z,71.40
2022-08-07T02:59:27.661Z,70.70
2022-08-07T03:01:56.574Z,70.40
2022-08-07T03:04:30.734Z,69.30
2022-08-07T03:07:07.066Z,69.40
2022-08-07T03:09:43.541Z,69.60
2022-08-07T03:12:21.750Z,71.10
2022-08-07T03:14:52.144Z,71.80
2022-08-07T03:17:22.212Z,71.50
2022-08-07T03:19:54.492Z,70.60
2022-08-07T03:22:29.635Z,71.80
2022-08-07T03:24:59.870Z,71.00
2022-08-07T03:27:58.758Z,71.40
2022-08-07T03:30:18.703Z,72.80
2022-08-07T03:32:58.301Z,72.30
2022-08-07T03:35:43.625Z,72.00
2022-08-07T03:38:21.017Z,71.50
2022-08-07T03:40:57.189Z,72.30
2022-08-07T03:43:26.964Z,73.90
2022-08-07T03:46:02.885Z,74.30
2022-08-07T03:48:32.894Z,73.00
2022-08-07T03:51:01.624Z,71.60
2022-08-07T03:54:00.812Z,71.30
2022-08-07T03:56:33.181Z,70.70
2022-08-07T03:59:09.977Z,70.40
2022-08-07T04:01:45.262Z,71.20
2022-08-07T04:04:17.920Z,72.00
2022-08-07T04:06:46.807Z,73.60
2022-08-07T04:09:23.043Z,74.60
2022-08-07T04:12:23.806Z,75.80
2022-08-07T04:14:46.253Z,78.00
2022-08-07T04:17:21.515Z,79.80
2022-08-07T04:19:54.691Z,79.50
2022-08-07T04:22:28.494Z,76.40
2022-08-07T04:25:00.853Z,75.60
2022-08-07T04:27:35.659Z,73.80
2022-08-07T04:30:11.728Z,73.90
2022-08-07T04:32:44.657Z,75.80
2022-08-07T04:35:13.976Z,76.80
2022-08-07T04:38:03.135Z,77.80
2022-08-07T04:40:32.376Z,79.00
2022-08-07T04:43:02.085Z,80.50
2022-08-07T04:45:57.447Z,81.00
2022-08-07T04:48:36.620Z,79.20
2022-08-07T04:51:09.508Z,78.10
2022-08-07T04:54:05.279Z,78.00
2022-08-07T04:58:15.140Z,79.20
2022-08-07T05:00:11.170Z,81.10
2022-08-07T05:02:29.054Z,81.90
2022-08-07T05:05:12.026Z,83.30
2022-08-07T05:07:58.008Z,83.80
2022-08-07T05:10:34.183Z,84.60
2022-08-07T05:14:44.730Z,84.40
2022-08-07T05:15:59.041Z,83.70
2022-08-07T05:18:30.712Z,83.80
2022-08-07T05:21:03.996Z,83.70
2022-08-07T05:23:37.667Z,83.10
2022-08-07T05:26:13.419Z,82.70
2022-08-07T05:28:50.301Z,82.50
2022-08-07T05:31:23.157Z,82.50
2022-08-07T05:34:01.076Z,82.10
2022-08-07T05:36:35.384Z,81.90
2022-08-07T05:40:04.964Z,80.80
2022-08-07T05:42:01.736Z,80.80
2022-08-07T05:44:34.633Z,79.80
2022-08-07T05:47:17.902Z,78.70
2022-08-07T05:49:55.395Z,77.20
2022-08-07T05:52:32.392Z,76.70
2022-08-07T05:55:10.219Z,76.20
2022-08-07T05:57:41.934Z,75.80
2022-08-07T06:00:16.374Z,74.30
2022-08-07T06:02:48.732Z,74.20
2022-08-07T06:05:20.330Z,75.10
2022-08-07T06:08:14.612Z,74.40
2022-08-07T06:10:45.675Z,74.40
2022-08-07T06:13:15.540Z,74.40
2022-08-07T06:15:45.437Z,74.30
2022-08-07T06:18:14.435Z,74.40
2022-08-07T06:20:50.276Z,74.80
2022-08-07T06:24:37.079Z,75.30
2022-08-07T06:26:27.255Z,73.00
2022-08-07T06:28:59.035Z,72.90
2022-08-07T06:31:46.495Z,71.50
2022-08-07T06:34:15.480Z,72.30
2022-08-07T06:36:52.054Z,71.00
2022-08-07T06:40:16.543Z,71.90
2022-08-07T06:42:12.463Z,71.80
2022-08-07T06:44:43.097Z,71.20
2022-08-07T06:47:15.239Z,72.30
2022-08-07T06:49:51.229Z,71.00
2022-08-07T06:52:31.717Z,71.80
2022-08-07T06:55:34.451Z,72.50
2022-08-07T06:57:59.227Z,71.90
2022-08-07T07:00:29.215Z,72.10
2022-08-07T07:03:00.825Z,72.30
2022-08-07T07:06:04.435Z,73.10
2022-08-07T07:08:33.278Z,73.00
2022-08-07T07:11:13.133Z,72.70
2022-08-07T07:13:58.424Z,72.60
2022-08-07T07:16:34.263Z,71.90
2022-08-07T07:19:55.852Z,72.70
2022-08-07T07:22:12.175Z,70.60
2022-08-07T07:24:56.748Z,71.50
2022-08-07T07:27:35.719Z,69.90
2022-08-07T07:30:32.618Z,71.40
2022-08-07T07:33:07.767Z,71.50
2022-08-07T07:35:44.079Z,72.00
2022-08-07T07:38:25.971Z,69.70
2022-08-07T07:41:02.186Z,70.20
2022-08-07T07:44:13.903Z,69.60
2022-08-07T07:46:40.066Z,70.80
2022-08-07T07:50:35.219Z,69.80
2022-08-07T07:52:05.763Z,69.40
2022-08-07T07:54:36.000Z,68.90
2022-08-07T07:57:07.775Z,70.80
2022-08-07T07:59:52.911Z,69.50
2022-08-07T08:02:35.481Z,69.30
2022-08-07T08:05:11.494Z,70.10
2022-08-07T08:07:59.882Z,70.10
2022-08-07T08:10:38.130Z,68.70
2022-08-07T08:13:15.172Z,68.10
2022-08-07T08:15:57.672Z,69.20
2022-08-07T08:18:37.534Z,69.50
2022-08-07T08:22:00.697Z,69.40
2022-08-07T08:24:45.730Z,66.30
2022-08-07T08:27:16.711Z,64.60
2022-08-07T08:29:55.479Z,67.60
2022-08-07T08:32:38.641Z,65.60
2022-08-07T08:35:10.638Z,66.70
2022-08-07T08:38:01.094Z,62.40
2022-08-07T08:40:31.632Z,62.90
2022-08-07T08:43:04.579Z,65.20
2022-08-07T08:45:59.271Z,64.70
2022-08-07T08:48:36.554Z,65.10
2022-08-07T08:51:14.305Z,61.20
2022-08-07T08:53:48.647Z,60.00
2022-08-07T08:56:28.149Z,59.30
2022-08-07T08:59:06.668Z,62.80
2022-08-07T09:01:49.166Z,63.00
2022-08-07T09:04:25.679Z,59.70
2022-08-07T09:07:03.369Z,60.80
2022-08-07T09:09:49.056Z,58.70
2022-08-07T09:12:53.258Z,57.70
2022-08-07T09:16:23.408Z,58.50
2022-08-07T09:18:42.330Z,57.20
2022-08-07T09:22:09.682Z,57.70
2022-08-07T09:24:59.748Z,56.10
2022-08-07T09:27:54.560Z,59.80
2022-08-07T09:30:28.248Z,57.70
2022-08-07T09:33:16.753Z,56.70
2022-08-07T09:36:06.327Z,56.90
2022-08-07T09:38:53.608Z,59.20
2022-08-07T09:41:36.232Z,60.10
2022-08-07T09:44:32.975Z,54.20
2022-08-07T09:47:49.843Z,56.30
2022-08-07T09:50:18.657Z,54.20
2022-08-07T09:52:56.683Z,53.40
2022-08-07T09:56:04.678Z,54.00
2022-08-07T09:59:07.787Z,53.30
2022-08-07T10:01:59.054Z,53.10
2022-08-07T10:04:45.882Z,52.90
2022-08-07T10:07:39.751Z,53.90
2022-08-07T10:11:16.851Z,54.60
2022-08-07T10:14:00.053Z,55.30
2022-08-07T10:17:14.253Z,54.10
2022-08-07T10:20:04.963Z,53.50
2022-08-07T10:22:51.754Z,54.80
2022-08-07T10:25:42.262Z,58.10
2022-08-07T10:28:31.803Z,55.80
2022-08-07T10:31:17.697Z,56.70
2022-08-07T10:34:05.625Z,52.30
2022-08-07T10:36:58.320Z,51.00
2022-08-07T10:40:03.059Z,55.90
2022-08-07T10:42:37.952Z,51.50
2022-08-07T10:45:19.357Z,53.00
2022-08-07T10:48:20.432Z,56.00
2022-08-07T10:50:53.147Z,52.60
2022-08-07T10:53:44.230Z,52.60
2022-08-07T10:56:31.358Z,51.20
2022-08-07T10:59:15.590Z,51.60
2022-08-07T11:02:05.045Z,52.40
2022-08-07T11:04:57.462Z,51.00
2022-08-07T11:07:59.128Z,53.60
2022-08-07T11:10:41.682Z,50.10
2022-08-07T11:14:43.772Z,54.60
2022-08-07T11:16:09.979Z,53.00
2022-08-07T11:18:51.081Z,51.90
2022-08-07T11:21:31.868Z,52.90
2022-08-07T11:24:08.509Z,54.50
2022-08-07T11:26:48.274Z,54.70
2022-08-07T11:29:40.871Z,50.70
2022-08-07T11:32:25.720Z,54.00
2022-08-07T11:34:59.560Z,52.20
2022-08-07T11:38:10.237Z,51.70
2022-08-07T11:40:49.622Z,55.20
2022-08-07T11:43:41.752Z,50.50
2022-08-07T11:46:29.238Z,49.70
2022-08-07T11:49:51.104Z,49.00
2022-08-07T11:52:29.037Z,50.10
2022-08-07T11:55:12.892Z,50.80
2022-08-07T11:58:00.770Z,49.70
2022-08-07T12:00:39.329Z,50.00
2022-08-07T12:03:41.440Z,49.10
2022-08-07T12:06:38.955Z,53.90
2022-08-07T12:09:16.672Z,54.50
2022-08-07T12:12:10.610Z,54.60
2022-08-07T12:14:53.887Z,50.50
2022-08-07T12:17:37.075Z,48.60
2022-08-07T12:20:20.859Z,48.90
2022-08-07T12:24:05.799Z,54.50
2022-08-07T12:26:29.905Z,48.60
2022-08-07T12:29:06.977Z,48.80
2022-08-07T12:31:52.745Z,51.30
2022-08-07T12:34:31.053Z,54.10
2022-08-07T12:37:01.683Z,51.90
2022-08-07T12:39:43.305Z,55.00
2022-08-07T12:42:27.989Z,48.80
2022-08-07T12:44:59.743Z,52.60
2022-08-07T12:47:39.828Z,51.80
2022-08-07T12:50:34.258Z,46.00
2022-08-07T12:53:17.697Z,46.70
2022-08-07T12:56:01.945Z,47.90
2022-08-07T12:58:39.636Z,48.20
2022-08-07T13:01:18.240Z,48.30
2022-08-07T13:04:09.761Z,48.90
2022-08-07T13:07:07.375Z,47.80
2022-08-07T13:10:19.441Z,48.80
2022-08-07T13:12:58.000Z,47.30
2022-08-07T13:15:38.131Z,50.00
2022-08-07T13:18:26.707Z,46.70
2022-08-07T13:21:06.080Z,45.90
2022-08-07T13:24:00.737Z,46.70
2022-08-07T13:26:36.532Z,48.80
2022-08-07T13:29:12.867Z,47.40
2022-08-07T13:31:54.893Z,47.60
2022-08-07T13:34:36.528Z,46.10
2022-08-07T13:37:20.030Z,48.60
2022-08-07T13:40:35.996Z,47.80
2022-08-07T13:42:47.172Z,46.90
2022-08-07T13:46:12.455Z,46.20
2022-08-07T13:48:27.893Z,47.10
2022-08-07T13:51:02.064Z,47.50
2022-08-07T13:54:00.874Z,47.00
2022-08-07T13:56:35.698Z,46.70
2022-08-07T13:59:12.670Z,49.10
2022-08-07T14:01:55.525Z,46.90
2022-08-07T14:04:49.592Z,46.60
2022-08-07T14:07:22.949Z,47.60
2022-08-07T14:10:01.210Z,47.70
2022-08-07T14:12:54.547Z,47.70
2022-08-07T14:15:31.939Z,48.70
2022-08-07T14:18:23.733Z,49.80
2022-08-07T14:21:07.922Z,48.80
2022-08-07T14:24:00.696Z,48.10
2022-08-07T14:26:35.877Z,45.20
2022-08-07T14:30:03.066Z,46.00
2022-08-07T14:31:57.884Z,46.90
2022-08-07T14:34:30.721Z,46.80
2022-08-07T14:37:03.249Z,49.00
2022-08-07T14:40:16.272Z,48.80
2022-08-07T14:42:32.534Z,46.10
2022-08-07T14:50:48.108Z,47.80
2022-08-07T14:54:06.596Z,47.80
2022-08-07T14:56:13.172Z,47.60
2022-08-07T14:58:44.372Z,46.90
2022-08-07T15:04:06.299Z,47.60
2022-08-07T15:06:39.011Z,46.60
2022-08-07T15:12:07.346Z,48.10
2022-08-07T15:14:55.956Z,47.40
2022-08-07T15:17:32.636Z,47.50
2022-08-07T15:20:32.797Z,49.00
2022-08-07T15:25:57.528Z,48.40
2022-08-07T15:28:34.473Z,47.60
2022-08-07T15:31:12.189Z,48.30
2022-08-07T15:33:43.059Z,48.40
2022-08-07T15:36:11.881Z,48.30
2022-08-07T15:38:51.941Z,49.00
2022-08-07T15:42:45.203Z,49.60
2022-08-07T15:44:24.036Z,48.60
2022-08-07T15:46:58.226Z,48.50
2022-08-07T15:50:06.035Z,48.90
2022-08-07T15:52:30.490Z,48.00
2022-08-07T15:55:02.750Z,49.40
2022-08-07T15:57:39.762Z,48.10
2022-08-07T16:00:31.563Z,49.10
2022-08-07T16:03:05.566Z,47.50
2022-08-07T16:05:34.644Z,48.90
2022-08-07T16:08:30.742Z,48.50
2022-08-07T16:11:02.551Z,49.60
2022-08-07T16:14:06.592Z,48.60
2022-08-07T16:16:51.129Z,49.20
2022-08-07T16:19:41.868Z,50.70
2022-08-07T16:22:55.269Z,48.20
2022-08-07T16:25:55.272Z,49.00
2022-08-07T16:30:06.768Z,48.40
2022-08-07T16:32:00.714Z,49.20
2022-08-07T16:34:48.080Z,49.10
2022-08-07T16:38:04.079Z,50.00
2022-08-07T16:40:56.921Z,50.40
2022-08-07T16:44:03.908Z,50.90
2022-08-07T16:47:17.878Z,50.00
2022-08-07T16:50:36.261Z,49.40
2022-08-07T16:53:48.086Z,51.20
2022-08-07T16:56:19.876Z,49.30
2022-08-07T16:59:14.450Z,48.60
2022-08-07T17:02:00.273Z,48.70
2022-08-07T17:04:57.989Z,48.70
2022-08-07T17:07:52.025Z,49.40
2022-08-07T17:10:32.473Z,49.80
2022-08-07T17:13:25.351Z,50.50
2022-08-07T17:16:15.392Z,49.50
2022-08-07T17:19:00.475Z,50.30
2022-08-07T17:21:50.758Z,49.80
2022-08-07T17:24:32.612Z,50.50
2022-08-07T17:27:08.178Z,50.10
2022-08-07T17:30:14.176Z,50.40
2022-08-07T17:33:02.137Z,50.50
2022-08-07T17:35:55.378Z,50.40
2022-08-07T17:38:34.240Z,50.00
2022-08-07T17:41:12.325Z,50.10
2022-08-07T17:44:10.466Z,50.40
2022-08-07T17:46:52.171Z,49.80
2022-08-07T17:49:24.397Z,49.40
2022-08-07T17:52:00.352Z,49.80
2022-08-07T17:54:39.544Z,50.00
2022-08-07T17:57:25.524Z,51.00
2022-08-07T18:00:33.136Z,52.30
2022-08-07T18:03:18.238Z,49.30
2022-08-07T18:06:01.416Z,50.40
2022-08-07T18:08:54.250Z,50.20
2022-08-07T18:12:17.439Z,51.30
2022-08-07T18:14:28.251Z,50.70
2022-08-07T18:17:00.322Z,51.80
2022-08-07T18:21:11.034Z,51.10
2022-08-07T18:22:36.341Z,52.50
2022-08-07T18:25:23.956Z,50.90
2022-08-07T18:28:36.016Z,50.50
2022-08-07T18:31:07.530Z,51.40
2022-08-07T18:33:55.424Z,50.10
2022-08-07T18:36:38.375Z,50.70
2022-08-07T18:40:05.487Z,51.30
2022-08-07T18:42:18.625Z,50.00
2022-08-07T18:45:39.741Z,52.00
2022-08-07T18:48:01.582Z,52.70
2022-08-07T18:50:48.675Z,51.10
2022-08-07T18:53:36.622Z,52.00
2022-08-07T18:56:15.166Z,53.00
2022-08-07T18:59:00.642Z,54.10
2022-08-07T19:02:19.301Z,52.20
2022-08-07T19:04:53.355Z,52.60
2022-08-07T19:07:35.162Z,52.20
2022-08-07T19:10:12.131Z,52.70
2022-08-07T19:12:59.126Z,53.40
2022-08-07T19:16:05.381Z,53.40
2022-08-07T19:18:46.366Z,53.30
2022-08-07T19:21:44.287Z,53.10
2022-08-07T19:24:30.487Z,52.90
2022-08-07T19:28:57.147Z,52.20
2022-08-07T19:31:00.217Z,53.00
2022-08-07T19:32:47.470Z,52.60
2022-08-07T19:35:22.666Z,52.60
2022-08-07T19:37:57.947Z,53.50
2022-08-07T19:40:31.135Z,53.60
2022-08-07T19:43:09.210Z,53.70
2022-08-07T19:46:08.216Z,53.60
2022-08-07T19:48:42.230Z,53.70
2022-08-07T19:51:19.993Z,53.60
2022-08-07T19:54:34.120Z,53.60
2022-08-07T19:57:51.232Z,53.60
2022-08-07T19:59:39.945Z,53.60
2022-08-07T20:02:19.600Z,53.60
2022-08-07T20:04:57.850Z,53.80
2022-08-07T20:07:47.122Z,54.00
2022-08-07T20:10:36.539Z,53.60
2022-08-07T20:13:22.386Z,54.40
2022-08-07T20:15:53.955Z,54.40
2022-08-07T20:18:32.697Z,54.40
2022-08-07T20:21:14.895Z,54.50
2022-08-07T20:23:54.242Z,54.50
2022-08-07T20:26:32.804Z,54.50
2022-08-07T20:29:16.963Z,54.70
2022-08-07T20:32:02.314Z,54.80
2022-08-07T20:34:49.327Z,54.80
2022-08-07T20:37:26.158Z,54.90
2022-08-07T20:40:04.316Z,54.90
2022-08-07T20:42:35.318Z,54.90
2022-08-07T20:45:32.999Z,55.00
2022-08-07T20:47:58.331Z,55.10
2022-08-07T20:50:29.074Z,55.10
2022-08-07T20:53:00.388Z,55.20
2022-08-07T20:55:32.041Z,55.30
2022-08-07T20:58:11.847Z,55.20
2022-08-07T21:00:53.073Z,55.40
2022-08-07T21:03:25.768Z,55.40
2022-08-07T21:06:00.732Z,55.50
2022-08-07T21:08:37.082Z,55.70
2022-08-07T21:11:12.398Z,55.20
2022-08-07T21:14:16.944Z,54.20
2022-08-07T21:16:55.896Z,54.60
2022-08-07T21:19:32.058Z,55.50
2022-08-07T21:22:19.332Z,56.40
2022-08-07T21:25:12.178Z,56.20
2022-08-07T21:28:01.894Z,56.30
2022-08-07T21:30:38.617Z,55.20
2022-08-07T21:33:16.168Z,56.60
2022-08-07T21:36:05.718Z,56.30
2022-08-07T21:38:49.986Z,55.90
2022-08-07T21:41:27.877Z,54.30
2022-08-07T21:44:14.315Z,56.50
2022-08-07T21:47:00.802Z,55.60
2022-08-07T21:49:40.747Z,54.80
2022-08-07T21:52:35.147Z,56.40
2022-08-07T21:55:10.891Z,56.20
2022-08-07T21:57:52.834Z,56.00
2022-08-07T22:00:25.202Z,56.70
2022-08-07T22:03:07.397Z,56.30
2022-08-07T22:05:50.036Z,57.00
2022-08-07T22:08:23.230Z,56.60
2022-08-07T22:10:58.863Z,57.20
2022-08-07T22:13:50.272Z,57.10
2022-08-07T22:16:39.713Z,56.10
2022-08-07T22:19:27.096Z,57.40
2022-08-07T22:22:17.645Z,56.80
2022-08-07T22:25:03.195Z,57.40
2022-08-07T22:28:08.136Z,57.90
2022-08-07T22:30:32.888Z,57.80
2022-08-07T22:33:05.641Z,57.90
2022-08-07T22:35:41.307Z,57.20
2022-08-07T22:38:24.076Z,58.00
2022-08-07T22:40:59.940Z,57.60
2022-08-07T22:43:37.092Z,55.90
2022-08-07T22:47:01.915Z,56.80
2022-08-07T22:49:54.898Z,58.60
2022-08-07T22:52:56.776Z,58.70
2022-08-07T22:55:47.431Z,59.30
2022-08-07T22:58:43.003Z,58.10
2022-08-07T23:01:54.421Z,57.10
2022-08-07T23:04:57.674Z,58.10
2022-08-07T23:07:45.083Z,59.00
2022-08-07T23:10:38.101Z,58.70
2022-08-07T23:13:48.500Z,59.20
2022-08-07T23:16:48.311Z,59.30
2022-08-07T23:19:59.877Z,59.00
2022-08-07T23:22:43.114Z,59.20
2022-08-07T23:25:24.282Z,59.00
2022-08-07T23:28:28.470Z,56.80
2022-08-07T23:31:13.907Z,56.50
2022-08-07T23:34:22.513Z,57.70
2022-08-07T23:37:22.397Z,58.80
2022-08-07T23:40:07.561Z,59.20
2022-08-07T23:42:56.078Z,58.70
2022-08-07T23:46:02.481Z,59.00
2022-08-07T23:48:44.525Z,58.90
2022-08-07T23:53:00.785Z,60.20
2022-08-07T23:54:36.336Z,60.60
2022-08-07T23:57:20.711Z,60.60
